createdAt,value
2022-08-31T00:01:01.094Z,4.20
2022-08-31T00:04:21.230Z,5.07
2022-08-31T00:07:41.322Z,4.83
2022-08-31T00:11:03.857Z,4.80
2022-08-31T00:14:23.309Z,4.70
2022-08-31T00:17:44.226Z,5.00
2022-08-31T00:21:05.701Z,4.73
2022-08-31T00:24:25.290Z,5.40
2022-08-31T00:27:23.497Z,5.43
2022-08-31T00:30:43.628Z,4.83
2022-08-31T00:34:04.398Z,5.43
2022-08-31T00:37:25.250Z,5.13
2022-08-31T00:40:45.674Z,5.13
2022-08-31T00:44:07.628Z,5.23
2022-08-31T00:47:28.218Z,5.17
2022-08-31T00:50:48.213Z,5.23
2022-08-31T00:54:08.421Z,5.00
2022-08-31T00:57:34.502Z,4.93
2022-08-31T01:00:55.830Z,5.27
2022-08-31T01:04:15.721Z,5.30
2022-08-31T01:07:40.948Z,5.10
2022-08-31T01:11:00.741Z,5.27
2022-08-31T01:14:20.677Z,5.20
2022-08-31T01:17:42.701Z,5.77
2022-08-31T01:21:10.890Z,5.17
2022-08-31T01:24:34.649Z,5.47
2022-08-31T01:27:54.206Z,5.30
2022-08-31T01:31:21.874Z,5.23
2022-08-31T01:34:42.101Z,4.90
2022-08-31T01:38:02.057Z,5.33
2022-08-31T01:41:25.679Z,5.27
2022-08-31T01:43:47.089Z,7.00
2022-08-31T01:46:11.494Z,7.13
2022-08-31T01:48:33.678Z,6.93
2022-08-31T01:50:55.698Z,7.43
2022-08-31T01:53:17.309Z,7.37
2022-08-31T01:55:41.090Z,8.30
2022-08-31T01:58:02.665Z,7.83
2022-08-31T02:00:24.183Z,7.33
2022-08-31T02:02:45.610Z,8.17
2022-08-31T02:05:07.801Z,7.83
2022-08-31T02:07:29.028Z,7.70
2022-08-31T02:09:50.236Z,7.83
2022-08-31T02:12:13.849Z,8.37
2022-08-31T02:14:35.054Z,8.20
2022-08-31T02:16:56.433Z,8.90
2022-08-31T02:19:17.953Z,9.70
2022-08-31T02:21:39.495Z,9.73
2022-08-31T02:24:01.044Z,9.27
2022-08-31T02:26:22.690Z,9.87
2022-08-31T02:28:45.733Z,9.70
2022-08-31T02:31:07.608Z,8.93
2022-08-31T02:33:28.841Z,9.67
2022-08-31T02:35:53.856Z,9.83
2022-08-31T02:38:15.415Z,9.93
2022-08-31T02:40:38.565Z,9.80
2022-08-31T02:43:01.125Z,11.63
2022-08-31T02:45:24.142Z,11.63
2022-08-31T02:47:45.577Z,11.17
2022-08-31T02:50:08.343Z,11.07
2022-08-31T02:52:35.650Z,12.20
2022-08-31T02:54:56.965Z,12.03
2022-08-31T02:57:28.621Z,11.97
2022-08-31T02:59:50.429Z,11.80
2022-08-31T03:02:13.803Z,11.20
2022-08-31T03:04:35.422Z,11.87
2022-08-31T03:06:57.141Z,12.70
2022-08-31T03:09:18.792Z,12.40
2022-08-31T03:11:40.053Z,11.23
2022-08-31T03:14:01.397Z,12.20
2022-08-31T03:16:22.648Z,12.00
2022-08-31T03:18:46.149Z,12.63
2022-08-31T03:21:07.698Z,12.23
2022-08-31T03:23:29.094Z,12.57
2022-08-31T03:25:50.313Z,12.70
2022-08-31T03:28:11.593Z,12.37
2022-08-31T03:30:32.852Z,12.10
2022-08-31T03:32:54.089Z,13.93
2022-08-31T03:35:20.657Z,12.47
2022-08-31T03:37:42.232Z,13.13
2022-08-31T03:40:04.289Z,12.20
2022-08-31T03:42:26.808Z,12.57
2022-08-31T03:44:49.309Z,12.03
2022-08-31T03:47:10.674Z,12.67
2022-08-31T03:49:35.794Z,12.63
2022-08-31T03:51:58.409Z,11.93
2022-08-31T03:54:20.046Z,12.27
2022-08-31T03:56:41.921Z,12.13
2022-08-31T03:59:03.452Z,11.70
2022-08-31T04:01:45.391Z,12.40
2022-08-31T04:04:27.859Z,12.67
2022-08-31T04:07:11.189Z,12.70
2022-08-31T04:09:53.026Z,11.50
2022-08-31T04:12:34.916Z,11.07
2022-08-31T04:15:17.764Z,11.40
2022-08-31T04:17:59.977Z,12.20
2022-08-31T04:20:41.972Z,11.30
2022-08-31T04:23:29.426Z,13.27
2022-08-31T04:26:19.689Z,11.90
2022-08-31T04:29:01.723Z,11.47
2022-08-31T04:31:44.511Z,12.50
2022-08-31T04:34:27.001Z,12.47
2022-08-31T04:37:10.341Z,11.97
2022-08-31T04:39:55.486Z,13.07
2022-08-31T04:42:41.347Z,12.90
2022-08-31T04:45:24.071Z,13.40
2022-08-31T04:48:06.114Z,13.60
2022-08-31T04:50:44.940Z,11.90
2022-08-31T04:54:03.428Z,12.80
2022-08-31T04:57:26.253Z,13.30
2022-08-31T04:59:47.840Z,13.60
2022-08-31T05:02:09.085Z,13.97
2022-08-31T05:04:52.473Z,14.93
2022-08-31T05:07:28.518Z,13.70
2022-08-31T05:09:56.921Z,14.20
2022-08-31T05:12:34.494Z,14.60
2022-08-31T05:15:02.977Z,14.83
2022-08-31T05:17:54.725Z,15.67
2022-08-31T05:21:15.321Z,16.13
2022-08-31T05:24:37.200Z,15.83
2022-08-31T05:27:04.793Z,17.00
2022-08-31T05:30:26.451Z,15.90
2022-08-31T05:32:49.695Z,16.57
2022-08-31T05:35:56.876Z,16.20
2022-08-31T05:38:18.360Z,16.20
2022-08-31T05:41:38.396Z,17.57
2022-08-31T05:45:00.003Z,15.07
2022-08-31T05:48:18.979Z,16.37
2022-08-31T05:51:37.433Z,15.40
2022-08-31T05:54:23.536Z,15.60
2022-08-31T05:57:01.507Z,14.90
2022-08-31T05:59:27.101Z,15.37
2022-08-31T06:02:08.960Z,15.53
2022-08-31T06:05:29.998Z,15.27
2022-08-31T06:08:51.777Z,14.50
2022-08-31T06:12:13.897Z,13.63
2022-08-31T06:14:53.231Z,15.60
2022-08-31T06:17:41.236Z,13.83
2022-08-31T06:20:45.630Z,13.13
2022-08-31T06:23:37.585Z,13.73
2022-08-31T06:26:28.592Z,13.97
2022-08-31T06:29:07.411Z,13.37
2022-08-31T06:31:32.912Z,13.70
2022-08-31T06:34:03.019Z,14.10
2022-08-31T06:36:57.989Z,13.30
2022-08-31T06:39:19.774Z,13.33
2022-08-31T06:41:41.753Z,13.90
2022-08-31T06:44:05.687Z,12.77
2022-08-31T06:46:27.630Z,13.50
2022-08-31T06:48:50.659Z,12.73
2022-08-31T06:51:14.230Z,12.90
2022-08-31T06:53:36.537Z,13.90
2022-08-31T06:55:58.093Z,14.13
2022-08-31T06:58:19.242Z,12.10
2022-08-31T07:00:40.430Z,11.10
2022-08-31T07:03:22.810Z,11.73
2022-08-31T07:05:44.372Z,11.43
2022-08-31T07:08:07.657Z,12.10
2022-08-31T07:10:29.216Z,12.50
2022-08-31T07:12:50.310Z,12.00
2022-08-31T07:15:32.714Z,11.90
2022-08-31T07:18:14.673Z,16.10
2022-08-31T07:20:57.775Z,11.87
2022-08-31T07:23:40.742Z,12.27
2022-08-31T07:26:25.777Z,11.33
2022-08-31T07:29:08.176Z,11.30
2022-08-31T07:31:48.543Z,11.17
2022-08-31T07:34:13.236Z,11.13
2022-08-31T07:37:13.869Z,10.10
2022-08-31T07:40:15.151Z,10.00
2022-08-31T07:42:58.281Z,10.90
2022-08-31T07:45:41.835Z,10.73
2022-08-31T07:48:24.207Z,10.93
2022-08-31T07:51:06.462Z,9.63
2022-08-31T07:53:48.365Z,10.50
2022-08-31T07:56:35.030Z,11.10
2022-08-31T07:59:17.174Z,11.63
2022-08-31T08:02:02.014Z,10.77
2022-08-31T08:04:32.314Z,10.23
2022-08-31T08:07:17.642Z,9.77
2022-08-31T08:09:58.876Z,10.23
2022-08-31T08:12:42.174Z,10.00
2022-08-31T08:15:25.562Z,10.37
2022-08-31T08:18:07.280Z,9.87
2022-08-31T08:20:38.541Z,9.90
2022-08-31T08:23:26.798Z,9.80
2022-08-31T08:26:21.122Z,9.33
2022-08-31T08:29:06.113Z,9.17
2022-08-31T08:31:51.488Z,9.07
2022-08-31T08:34:32.682Z,9.27
2022-08-31T08:37:15.033Z,9.23
2022-08-31T08:39:59.453Z,8.73
2022-08-31T08:42:42.665Z,8.63
2022-08-31T08:45:24.268Z,8.50
2022-08-31T08:48:02.459Z,8.03
2022-08-31T08:50:36.356Z,8.43
2022-08-31T08:53:03.499Z,9.23
2022-08-31T08:55:50.138Z,7.90
2022-08-31T08:58:35.958Z,9.00
2022-08-31T09:01:20.409Z,8.87
2022-08-31T09:04:09.738Z,7.60
2022-08-31T09:06:58.103Z,8.37
2022-08-31T09:09:46.509Z,7.77
2022-08-31T09:12:38.436Z,7.30
2022-08-31T09:15:15.801Z,7.47
2022-08-31T09:17:44.418Z,7.60
2022-08-31T09:20:07.412Z,7.53
2022-08-31T09:22:29.571Z,7.97
2022-08-31T09:24:56.232Z,8.03
2022-08-31T09:27:20.263Z,8.00
2022-08-31T09:29:45.096Z,8.10
2022-08-31T09:32:09.831Z,7.53
2022-08-31T09:34:36.557Z,8.30
2022-08-31T09:37:16.111Z,8.50
2022-08-31T09:39:37.961Z,8.53
2022-08-31T09:42:04.800Z,8.30
2022-08-31T09:44:31.951Z,8.43
2022-08-31T09:47:20.320Z,7.93
2022-08-31T09:50:29.263Z,7.83
2022-08-31T09:53:30.835Z,7.97
2022-08-31T09:56:25.259Z,7.97
2022-08-31T09:59:10.969Z,8.70
2022-08-31T10:01:59.204Z,9.10
2022-08-31T10:04:51.067Z,8.70
2022-08-31T10:07:40.627Z,9.13
2022-08-31T10:10:31.253Z,9.00
2022-08-31T10:13:18.027Z,8.70
2022-08-31T10:15:53.669Z,8.90
2022-08-31T10:18:44.990Z,8.70
2022-08-31T10:21:40.569Z,9.00
2022-08-31T10:24:33.957Z,10.17
2022-08-31T10:27:25.875Z,9.13
2022-08-31T10:30:14.706Z,9.40
2022-08-31T10:32:38.031Z,9.13
2022-08-31T10:35:23.881Z,10.43
2022-08-31T10:38:21.133Z,11.27
2022-08-31T10:40:59.338Z,11.70
2022-08-31T10:43:46.051Z,10.90
2022-08-31T10:46:29.092Z,12.40
2022-08-31T10:49:20.727Z,11.30
2022-08-31T10:51:49.215Z,12.43
2022-08-31T10:54:41.171Z,11.67
2022-08-31T10:57:39.839Z,11.30
2022-08-31T11:00:07.393Z,11.90
2022-08-31T11:02:46.808Z,11.60
2022-08-31T11:05:22.887Z,11.43
2022-08-31T11:07:49.975Z,11.13
2022-08-31T11:10:42.423Z,11.07
2022-08-31T11:13:28.001Z,9.90
2022-08-31T11:16:20.020Z,10.47
2022-08-31T11:19:27.250Z,10.20
2022-08-31T11:22:34.700Z,10.27
2022-08-31T11:25:52.222Z,10.20
2022-08-31T11:28:40.010Z,9.47
2022-08-31T11:31:24.638Z,9.57
2022-08-31T11:34:16.091Z,9.87
2022-08-31T11:37:07.445Z,10.43
2022-08-31T11:39:51.330Z,10.10
2022-08-31T11:42:48.136Z,9.20
2022-08-31T11:45:29.976Z,9.33
2022-08-31T11:48:03.190Z,9.27
2022-08-31T11:51:15.508Z,8.97
2022-08-31T11:53:55.388Z,9.23
2022-08-31T11:56:53.259Z,8.80
2022-08-31T11:59:29.043Z,8.10
2022-08-31T12:01:52.000Z,9.10
2022-08-31T12:04:52.164Z,8.70
2022-08-31T12:07:18.279Z,9.27
2022-08-31T12:10:08.166Z,8.80
2022-08-31T12:12:59.165Z,9.20
2022-08-31T12:15:25.196Z,9.37
2022-08-31T12:17:58.178Z,9.50
2022-08-31T12:20:26.490Z,9.50
2022-08-31T12:23:31.167Z,9.37
2022-08-31T12:26:00.052Z,8.57
2022-08-31T12:28:44.570Z,9.40
2022-08-31T12:31:07.460Z,8.27
2022-08-31T12:33:31.653Z,8.50
2022-08-31T12:35:56.313Z,8.33
2022-08-31T12:38:19.789Z,8.50
2022-08-31T12:41:04.720Z,8.77
2022-08-31T12:43:49.744Z,9.17
2022-08-31T12:46:31.898Z,8.47
2022-08-31T12:49:11.661Z,8.27
2022-08-31T12:51:41.169Z,8.67
2022-08-31T12:54:10.429Z,8.00
2022-08-31T12:56:48.967Z,7.73
2022-08-31T12:59:20.017Z,8.30
2022-08-31T13:01:44.246Z,8.60
2022-08-31T13:04:27.887Z,7.80
2022-08-31T13:07:16.493Z,7.80
2022-08-31T13:10:08.815Z,7.30
2022-08-31T13:12:51.366Z,7.57
2022-08-31T13:15:42.817Z,8.07
2022-08-31T13:18:25.433Z,7.87
2022-08-31T13:21:05.859Z,7.33
2022-08-31T13:23:50.623Z,7.77
2022-08-31T13:26:35.967Z,7.60
2022-08-31T13:29:20.403Z,7.10
2022-08-31T13:32:09.428Z,7.00
2022-08-31T13:34:52.425Z,6.93
2022-08-31T13:37:40.482Z,8.07
2022-08-31T13:40:23.844Z,7.97
2022-08-31T13:42:56.878Z,7.37
2022-08-31T13:45:58.566Z,6.73
2022-08-31T13:48:38.034Z,7.33
2022-08-31T13:51:22.476Z,7.07
2022-08-31T13:54:09.665Z,7.17
2022-08-31T13:56:58.822Z,7.20
2022-08-31T13:59:46.181Z,6.80
2022-08-31T14:02:48.862Z,6.70
2022-08-31T14:05:32.758Z,7.40
2022-08-31T14:08:26.325Z,7.07
2022-08-31T14:11:14.096Z,7.47
2022-08-31T14:13:57.074Z,7.00
2022-08-31T14:16:43.638Z,7.20
2022-08-31T14:19:32.504Z,8.27
2022-08-31T14:22:16.220Z,8.20
2022-08-31T14:25:00.570Z,6.97
2022-08-31T14:27:43.988Z,7.70
2022-08-31T14:30:26.455Z,7.40
2022-08-31T14:33:16.618Z,6.97
2022-08-31T14:35:55.426Z,7.73
2022-08-31T14:38:37.120Z,7.73
2022-08-31T14:41:19.821Z,7.73
2022-08-31T14:44:07.064Z,7.67
2022-08-31T14:46:49.059Z,6.40
2022-08-31T14:49:36.203Z,7.23
2022-08-31T14:52:18.989Z,8.13
2022-08-31T14:55:02.654Z,7.50
2022-08-31T14:57:46.033Z,7.43
2022-08-31T15:00:41.638Z,7.20
2022-08-31T15:03:28.072Z,7.03
2022-08-31T15:06:09.625Z,7.77
2022-08-31T15:08:52.052Z,8.10
2022-08-31T15:11:37.236Z,8.13
2022-08-31T15:14:12.579Z,8.40
2022-08-31T15:17:00.940Z,8.93
2022-08-31T15:19:23.106Z,8.97
2022-08-31T15:21:52.851Z,8.50
2022-08-31T15:24:26.013Z,8.73
2022-08-31T15:26:47.929Z,8.50
2022-08-31T15:29:16.514Z,9.27
2022-08-31T15:31:41.841Z,9.47
2022-08-31T15:34:07.100Z,9.17
2022-08-31T15:36:32.720Z,9.70
2022-08-31T15:38:56.133Z,9.80
2022-08-31T15:41:18.048Z,10.53
2022-08-31T15:43:41.507Z,10.20
2022-08-31T15:46:03.153Z,9.87
2022-08-31T15:48:45.147Z,8.50
2022-08-31T15:51:17.735Z,8.93
2022-08-31T15:53:42.642Z,8.57
2022-08-31T15:56:06.744Z,7.83
2022-08-31T15:58:31.697Z,7.30
2022-08-31T16:00:52.943Z,7.60
2022-08-31T16:03:14.731Z,7.40
2022-08-31T16:05:39.025Z,6.80
2022-08-31T16:08:00.806Z,7.20
2022-08-31T16:10:23.164Z,6.83
2022-08-31T16:12:46.104Z,7.43
2022-08-31T16:15:11.288Z,7.50
2022-08-31T16:17:34.452Z,6.70
2022-08-31T16:19:55.898Z,6.73
2022-08-31T16:22:20.865Z,6.90
2022-08-31T16:24:42.362Z,7.00
2022-08-31T16:27:06.241Z,7.13
2022-08-31T16:29:29.569Z,6.60
2022-08-31T16:31:51.407Z,6.60
2022-08-31T16:34:13.766Z,6.60
2022-08-31T16:36:35.873Z,5.80
2022-08-31T16:39:00.420Z,6.30
2022-08-31T16:41:43.122Z,5.30
2022-08-31T16:44:21.345Z,6.50
2022-08-31T16:46:43.179Z,6.70
2022-08-31T16:49:22.834Z,6.10
2022-08-31T16:51:48.525Z,5.77
2022-08-31T16:54:11.722Z,5.00
2022-08-31T16:56:36.043Z,6.57
2022-08-31T16:58:58.301Z,5.63
2022-08-31T17:01:25.481Z,5.43
2022-08-31T17:03:48.836Z,6.27
2022-08-31T17:06:10.245Z,5.93
2022-08-31T17:08:32.357Z,5.60
2022-08-31T17:10:55.298Z,5.40
2022-08-31T17:13:16.570Z,6.10
2022-08-31T17:15:39.173Z,6.10
2022-08-31T17:18:03.126Z,6.07
2022-08-31T17:20:25.055Z,6.07
2022-08-31T17:22:48.594Z,6.80
2022-08-31T17:25:13.121Z,6.73
2022-08-31T17:27:35.912Z,6.90
2022-08-31T17:30:00.705Z,7.30
2022-08-31T17:32:23.913Z,6.77
2022-08-31T17:34:51.397Z,6.70
2022-08-31T17:37:15.506Z,6.77
2022-08-31T17:39:36.798Z,6.30
2022-08-31T17:41:58.234Z,6.37
2022-08-31T17:44:22.961Z,6.30
2022-08-31T17:46:44.725Z,6.60
2022-08-31T17:49:06.429Z,6.23
2022-08-31T17:51:29.013Z,6.60
2022-08-31T17:53:50.117Z,7.40
2022-08-31T17:56:12.298Z,7.57
2022-08-31T17:58:33.603Z,7.47
2022-08-31T18:00:56.277Z,7.40
2022-08-31T18:03:18.249Z,6.97
2022-08-31T18:05:43.757Z,7.77
2022-08-31T18:08:04.939Z,7.93
2022-08-31T18:10:26.262Z,8.10
2022-08-31T18:12:47.559Z,7.27
2022-08-31T18:15:09.870Z,7.30
2022-08-31T18:17:32.553Z,7.20
2022-08-31T18:19:54.645Z,7.30
2022-08-31T18:22:18.110Z,7.47
2022-08-31T18:24:39.254Z,7.80
2022-08-31T18:27:03.168Z,7.10
2022-08-31T18:29:25.173Z,7.70
2022-08-31T18:31:50.012Z,7.43
2022-08-31T18:34:14.943Z,7.63
2022-08-31T18:36:38.849Z,7.47
2022-08-31T18:39:00.944Z,7.57
2022-08-31T18:41:41.476Z,7.93
2022-08-31T18:44:20.213Z,8.33
2022-08-31T18:46:41.841Z,7.77
2022-08-31T18:49:12.134Z,7.53
2022-08-31T18:51:38.558Z,8.20
2022-08-31T18:53:59.917Z,7.63
2022-08-31T18:56:21.185Z,8.13
2022-08-31T18:58:43.248Z,7.97
2022-08-31T19:01:10.086Z,7.77
2022-08-31T19:03:31.677Z,8.00
2022-08-31T19:05:52.872Z,8.67
2022-08-31T19:08:15.487Z,8.40
2022-08-31T19:10:37.006Z,9.03
2022-08-31T19:12:58.389Z,9.00
2022-08-31T19:15:19.600Z,9.07
2022-08-31T19:17:43.138Z,9.10
2022-08-31T19:20:05.900Z,8.53
2022-08-31T19:22:27.998Z,8.87
2022-08-31T19:24:51.696Z,9.77
2022-08-31T19:27:13.854Z,9.30
2022-08-31T19:29:35.685Z,8.93
2022-08-31T19:31:59.406Z,8.73
2022-08-31T19:34:23.198Z,9.90
2022-08-31T19:36:45.833Z,10.33
2022-08-31T19:39:08.368Z,10.03
2022-08-31T19:41:31.315Z,9.50
2022-08-31T19:44:03.128Z,9.70
2022-08-31T19:46:30.298Z,9.50
2022-08-31T19:48:51.586Z,9.63
2022-08-31T19:51:14.235Z,9.93
2022-08-31T19:53:35.753Z,10.80
2022-08-31T19:56:04.450Z,10.50
2022-08-31T19:58:26.978Z,11.33
2022-08-31T20:00:48.693Z,10.90
2022-08-31T20:03:10.948Z,9.63
2022-08-31T20:05:32.847Z,10.40
2022-08-31T20:08:01.736Z,9.43
2022-08-31T20:10:24.952Z,10.23
2022-08-31T20:12:52.473Z,10.20
2022-08-31T20:15:15.489Z,10.60
2022-08-31T20:17:36.778Z,9.80
2022-08-31T20:20:00.883Z,9.97
2022-08-31T20:22:23.967Z,9.50
2022-08-31T20:24:49.660Z,9.03
2022-08-31T20:27:10.933Z,10.23
2022-08-31T20:29:33.311Z,10.13
2022-08-31T20:31:57.287Z,10.67
2022-08-31T20:34:21.715Z,11.10
2022-08-31T20:36:44.101Z,11.00
2022-08-31T20:39:07.805Z,10.50
2022-08-31T20:41:32.203Z,10.10
2022-08-31T20:43:53.417Z,8.97
2022-08-31T20:46:35.426Z,10.00
2022-08-31T20:49:15.954Z,10.03
2022-08-31T20:51:40.974Z,10.00
2022-08-31T20:54:02.706Z,9.50
2022-08-31T20:56:26.231Z,10.20
2022-08-31T20:58:48.344Z,10.70
2022-08-31T21:01:09.902Z,10.70
2022-08-31T21:03:31.459Z,10.90
2022-08-31T21:05:54.214Z,10.50
2022-08-31T21:08:16.757Z,11.00
2022-08-31T21:10:40.091Z,10.20
2022-08-31T21:13:01.450Z,10.57
2022-08-31T21:15:22.718Z,9.50
2022-08-31T21:17:49.562Z,10.30
2022-08-31T21:20:12.034Z,10.30
2022-08-31T21:22:35.364Z,11.50
2022-08-31T21:25:03.436Z,10.13
2022-08-31T21:27:29.383Z,11.00
2022-08-31T21:29:51.356Z,11.23
2022-08-31T21:32:12.579Z,11.30
2022-08-31T21:34:34.830Z,12.23
2022-08-31T21:36:56.249Z,10.80
2022-08-31T21:39:21.359Z,11.80
2022-08-31T21:41:43.018Z,11.97
2022-08-31T21:44:06.667Z,10.63
2022-08-31T21:46:29.589Z,10.50
2022-08-31T21:48:52.601Z,10.37
2022-08-31T21:51:16.722Z,10.27
2022-08-31T21:53:38.149Z,9.27
2022-08-31T21:56:02.538Z,11.40
2022-08-31T21:58:24.462Z,10.50
2022-08-31T22:00:48.317Z,10.10
2022-08-31T22:03:10.162Z,12.60
2022-08-31T22:05:32.983Z,10.53
2022-08-31T22:07:54.429Z,10.47
2022-08-31T22:10:15.645Z,11.47
2022-08-31T22:12:38.256Z,12.97
2022-08-31T22:14:59.469Z,12.40
2022-08-31T22:17:20.782Z,10.70
2022-08-31T22:19:42.912Z,9.67
2022-08-31T22:22:07.161Z,11.20
2022-08-31T22:24:31.208Z,11.53
2022-08-31T22:26:52.801Z,11.90
2022-08-31T22:29:21.772Z,11.63
2022-08-31T22:31:44.318Z,11.90
2022-08-31T22:34:07.545Z,11.27
2022-08-31T22:36:32.391Z,11.90
2022-08-31T22:38:53.698Z,12.00
2022-08-31T22:41:16.744Z,11.63
2022-08-31T22:43:38.350Z,11.43
2022-08-31T22:46:01.782Z,12.00
2022-08-31T22:48:23.470Z,11.77
2022-08-31T22:50:44.781Z,12.33
2022-08-31T22:53:05.964Z,12.23
2022-08-31T22:55:27.495Z,12.67
2022-08-31T22:57:48.813Z,13.43
2022-08-31T23:00:13.150Z,12.20
2022-08-31T23:02:45.163Z,11.63
2022-08-31T23:05:09.125Z,12.00
2022-08-31T23:07:30.452Z,12.17
2022-08-31T23:09:51.531Z,13.20
2022-08-31T23:12:13.006Z,13.13
2022-08-31T23:14:34.472Z,13.13
2022-08-31T23:16:59.188Z,12.90
2022-08-31T23:19:26.234Z,12.17
2022-08-31T23:21:52.870Z,13.93
2022-08-31T23:24:19.349Z,13.37
2022-08-31T23:26:40.806Z,12.03
2022-08-31T23:29:05.471Z,14.10
2022-08-31T23:31:27.946Z,13.50
2022-08-31T23:33:53.409Z,14.17
2022-08-31T23:36:17.915Z,15.77
2022-08-31T23:38:42.646Z,17.40
2022-08-31T23:41:04.281Z,16.83
2022-08-31T23:43:25.932Z,17.63
2022-08-31T23:45:47.267Z,17.50
2022-08-31T23:48:09.452Z,20.10
2022-08-31T23:50:30.682Z,19.23
2022-08-31T23:52:53.258Z,18.50
2022-08-31T23:55:15.584Z,18.93
2022-08-31T23:57:38.103Z,18.87
